Airfield :
LOGIN :

Register | Disclaimer

   EN    FR    IT 

 










Legend :    VFR   Marginal VFR   IFR   Intensive IFR   Very Intensive IFR
Visi :
Ceiling :
>= 8 km
>= 3000ft
5 to 8 km
1000 to 3000 ft
1500m to 5 km
500 to 1000 ft
800 to 1500m
200 to 500 ft
< 800m
< 200 ft
Symbols :   Thunderstorms  Fog  Heavy snow  Heavy precipitations  Wind > 20 kt
SIGMETs :     Misc.  Thunderstorms  Icing  Turbulence  Mountain Waves  Volcanic Ashes






- Airport Elevation : 755 ft
- IATA code : RWN


UKLR - Rivne

CURRENT METAR :
  • 201130Z 10005MPS 5000 BR OVC003 09/09 Q1025 R11/190060 NOSIG

EXPIRED METARs :
  • 201100Z 10004MPS 5000 BR OVC003 09/09 Q1025 R11/190060 NOSIG
  • 201030Z 10005MPS 4400 BR OVC003 09/09 Q1025 R11/190060 NOSIG
  • 201000Z 11005MPS 4000 BR OVC003 09/09 Q1025 R11/190060 NOSIG
  • 200930Z 10005MPS 2500 BR OVC002 09/09 Q1025 R11/190060 NOSIG
  • 200900Z 10005MPS 1400 BR OVC002 09/09 Q1025 R11/190060 NOSIG

TAF TAF UKLR
Valid from the 20 at 12:00 until the 20 at 21:00 UTC


201111Z 2012/2021 10006MPS 2100 BR OVC005
TEMPO 2012/2014 1500 BR OVC003
BECMG 2014/2016 12008G13MPS 5000 BR BKN007



MET'MAP, your aeronautical weather chart ! - Copyright ORBIFLY December 2007 - Disclaimer

ORBIFLY MET'MAP TEAM :

Programming & Development : Alexandra Zaïnal
Concept & Development : Baudouin d'Aumeries
Co-Development & Prog : Marc-Olivier Méhu
Technical & hardware support : Manuel Goepfert

Contact : metmap@orbifly.com




SOURCES & CREDITS :

   NOAA